sensor_id;sensor_type;location;lat;lon;timestamp;P1;durP1;ratioP1;P2;durP2;ratioP2
69244;SDS011;56357;52.304;4.870;2022-07-23T00:01:46;3.65;;;0.88;;
69244;SDS011;56357;52.304;4.870;2022-07-23T00:04:12;3.80;;;1.00;;
69244;SDS011;56357;52.304;4.870;2022-07-23T00:06:39;3.60;;;0.98;;
69244;SDS011;56357;52.304;4.870;2022-07-23T00:09:05;3.13;;;0.95;;
69244;SDS011;56357;52.304;4.870;2022-07-23T00:11:31;3.13;;;0.80;;
69244;SDS011;56357;52.304;4.870;2022-07-23T00:13:58;4.07;;;0.80;;
69244;SDS011;56357;52.304;4.870;2022-07-23T00:16:24;3.85;;;1.00;;
69244;SDS011;56357;52.304;4.870;2022-07-23T00:18:51;4.10;;;1.00;;
69244;SDS011;56357;52.304;4.870;2022-07-23T00:21:17;3.45;;;0.90;;
69244;SDS011;56357;52.304;4.870;2022-07-23T00:23:44;4.28;;;0.93;;
69244;SDS011;56357;52.304;4.870;2022-07-23T00:26:10;4.65;;;1.00;;
69244;SDS011;56357;52.304;4.870;2022-07-23T00:28:37;3.40;;;1.00;;
69244;SDS011;56357;52.304;4.870;2022-07-23T00:31:03;3.83;;;0.90;;
69244;SDS011;56357;52.304;4.870;2022-07-23T00:33:29;3.50;;;0.88;;
69244;SDS011;56357;52.304;4.870;2022-07-23T00:35:56;5.75;;;1.33;;
69244;SDS011;56357;52.304;4.870;2022-07-23T00:38:22;4.13;;;0.82;;
69244;SDS011;56357;52.304;4.870;2022-07-23T00:40:49;3.65;;;1.00;;
69244;SDS011;56357;52.304;4.870;2022-07-23T00:43:15;5.53;;;0.90;;
69244;SDS011;56357;52.304;4.870;2022-07-23T00:45:41;4.80;;;1.00;;
69244;SDS011;56357;52.304;4.870;2022-07-23T00:48:08;5.00;;;0.98;;
69244;SDS011;56357;52.304;4.870;2022-07-23T00:50:34;4.65;;;1.00;;
69244;SDS011;56357;52.304;4.870;2022-07-23T00:53:01;5.75;;;0.90;;
69244;SDS011;56357;52.304;4.870;2022-07-23T00:55:27;3.65;;;0.90;;
69244;SDS011;56357;52.304;4.870;2022-07-23T00:57:54;3.63;;;1.10;;
69244;SDS011;56357;52.304;4.870;2022-07-23T01:00:21;3.17;;;0.98;;
69244;SDS011;56357;52.304;4.870;2022-07-23T01:02:48;4.85;;;0.85;;
69244;SDS011;56357;52.304;4.870;2022-07-23T01:05:15;5.55;;;1.08;;
69244;SDS011;56357;52.304;4.870;2022-07-23T01:07:43;3.38;;;0.90;;
69244;SDS011;56357;52.304;4.870;2022-07-23T01:10:10;4.45;;;1.00;;
69244;SDS011;56357;52.304;4.870;2022-07-23T01:12:50;3.28;;;0.70;;
69244;SDS011;56357;52.304;4.870;2022-07-23T01:15:17;3.75;;;0.82;;
69244;SDS011;56357;52.304;4.870;2022-07-23T01:17:43;3.88;;;0.90;;
69244;SDS011;56357;52.304;4.870;2022-07-23T01:20:09;4.55;;;1.02;;
69244;SDS011;56357;52.304;4.870;2022-07-23T01:22:36;5.35;;;1.10;;
69244;SDS011;56357;52.304;4.870;2022-07-23T01:25:02;4.80;;;0.90;;
69244;SDS011;56357;52.304;4.870;2022-07-23T01:27:29;5.20;;;1.10;;
69244;SDS011;56357;52.304;4.870;2022-07-23T01:29:56;4.13;;;0.88;;
69244;SDS011;56357;52.304;4.870;2022-07-23T01:32:25;4.65;;;0.93;;
69244;SDS011;56357;52.304;4.870;2022-07-23T01:34:52;4.25;;;1.10;;
69244;SDS011;56357;52.304;4.870;2022-07-23T01:37:18;5.05;;;1.00;;
69244;SDS011;56357;52.304;4.870;2022-07-23T01:39:45;3.55;;;0.80;;
69244;SDS011;56357;52.304;4.870;2022-07-23T01:42:11;3.58;;;0.80;;
69244;SDS011;56357;52.304;4.870;2022-07-23T01:44:37;4.45;;;0.80;;
69244;SDS011;56357;52.304;4.870;2022-07-23T01:47:04;7.35;;;1.30;;
69244;SDS011;56357;52.304;4.870;2022-07-23T01:49:30;3.58;;;0.93;;
69244;SDS011;56357;52.304;4.870;2022-07-23T01:51:56;5.55;;;1.08;;
69244;SDS011;56357;52.304;4.870;2022-07-23T01:54:26;2.95;;;0.80;;
69244;SDS011;56357;52.304;4.870;2022-07-23T01:56:54;3.05;;;0.68;;
69244;SDS011;56357;52.304;4.870;2022-07-23T01:59:20;4.63;;;0.82;;
69244;SDS011;56357;52.304;4.870;2022-07-23T02:01:47;3.88;;;0.90;;
69244;SDS011;56357;52.304;4.870;2022-07-23T02:04:15;3.67;;;1.00;;
69244;SDS011;56357;52.304;4.870;2022-07-23T02:06:42;3.72;;;0.88;;
69244;SDS011;56357;52.304;4.870;2022-07-23T02:09:09;4.15;;;1.10;;
69244;SDS011;56357;52.304;4.870;2022-07-23T02:11:35;3.30;;;0.77;;
69244;SDS011;56357;52.304;4.870;2022-07-23T02:14:02;3.20;;;1.05;;
69244;SDS011;56357;52.304;4.870;2022-07-23T02:16:28;3.60;;;0.75;;
69244;SDS011;56357;52.304;4.870;2022-07-23T02:18:55;4.78;;;0.77;;
69244;SDS011;56357;52.304;4.870;2022-07-23T02:21:22;4.38;;;1.02;;
69244;SDS011;56357;52.304;4.870;2022-07-23T02:23:48;3.60;;;0.70;;
69244;SDS011;56357;52.304;4.870;2022-07-23T02:26:15;3.75;;;1.00;;
69244;SDS011;56357;52.304;4.870;2022-07-23T02:28:42;3.50;;;0.93;;
69244;SDS011;56357;52.304;4.870;2022-07-23T02:31:08;4.13;;;1.02;;
69244;SDS011;56357;52.304;4.870;2022-07-23T02:33:34;3.92;;;1.10;;
69244;SDS011;56357;52.304;4.870;2022-07-23T02:36:01;4.38;;;1.02;;
69244;SDS011;56357;52.304;4.870;2022-07-23T02:38:27;3.78;;;0.90;;
69244;SDS011;56357;52.304;4.870;2022-07-23T02:40:54;5.35;;;1.33;;
69244;SDS011;56357;52.304;4.870;2022-07-23T02:43:20;4.60;;;1.10;;
69244;SDS011;56357;52.304;4.870;2022-07-23T02:45:47;3.53;;;0.93;;
69244;SDS011;56357;52.304;4.870;2022-07-23T02:48:13;4.25;;;0.80;;
69244;SDS011;56357;52.304;4.870;2022-07-23T02:50:39;3.55;;;1.02;;
69244;SDS011;56357;52.304;4.870;2022-07-23T02:53:06;5.07;;;1.25;;
69244;SDS011;56357;52.304;4.870;2022-07-23T02:55:32;5.00;;;1.40;;
69244;SDS011;56357;52.304;4.870;2022-07-23T02:57:59;4.57;;;1.33;;
69244;SDS011;56357;52.304;4.870;2022-07-23T03:00:25;3.72;;;1.20;;
69244;SDS011;56357;52.304;4.870;2022-07-23T03:02:51;4.30;;;1.35;;
69244;SDS011;56357;52.304;4.870;2022-07-23T03:05:18;4.28;;;1.00;;
69244;SDS011;56357;52.304;4.870;2022-07-23T03:07:44;4.28;;;1.25;;
69244;SDS011;56357;52.304;4.870;2022-07-23T03:10:11;4.00;;;1.35;;
69244;SDS011;56357;52.304;4.870;2022-07-23T03:12:37;5.53;;;1.30;;
69244;SDS011;56357;52.304;4.870;2022-07-23T03:15:03;3.50;;;1.10;;
69244;SDS011;56357;52.304;4.870;2022-07-23T03:17:30;4.72;;;1.25;;
69244;SDS011;56357;52.304;4.870;2022-07-23T03:19:57;4.05;;;1.13;;
69244;SDS011;56357;52.304;4.870;2022-07-23T03:22:23;4.03;;;1.10;;
69244;SDS011;56357;52.304;4.870;2022-07-23T03:24:49;4.43;;;1.23;;
69244;SDS011;56357;52.304;4.870;2022-07-23T03:27:22;4.25;;;1.30;;
69244;SDS011;56357;52.304;4.870;2022-07-23T03:29:53;4.55;;;1.20;;
69244;SDS011;56357;52.304;4.870;2022-07-23T03:32:21;3.50;;;1.00;;
69244;SDS011;56357;52.304;4.870;2022-07-23T03:34:49;4.63;;;1.30;;
69244;SDS011;56357;52.304;4.870;2022-07-23T03:37:16;5.15;;;1.30;;
69244;SDS011;56357;52.304;4.870;2022-07-23T03:39:43;4.15;;;1.23;;
69244;SDS011;56357;52.304;4.870;2022-07-23T03:42:09;3.92;;;1.10;;
69244;SDS011;56357;52.304;4.870;2022-07-23T03:44:36;4.00;;;1.30;;
69244;SDS011;56357;52.304;4.870;2022-07-23T03:47:03;3.50;;;1.00;;
69244;SDS011;56357;52.304;4.870;2022-07-23T03:49:31;3.72;;;0.90;;
69244;SDS011;56357;52.304;4.870;2022-07-23T03:51:58;4.63;;;1.02;;
69244;SDS011;56357;52.304;4.870;2022-07-23T03:54:24;3.97;;;1.08;;
69244;SDS011;56357;52.304;4.870;2022-07-23T03:56:50;4.13;;;1.30;;
69244;SDS011;56357;52.304;4.870;2022-07-23T03:59:17;3.60;;;1.02;;
69244;SDS011;56357;52.304;4.870;2022-07-23T04:01:43;4.13;;;1.00;;
69244;SDS011;56357;52.304;4.870;2022-07-23T04:04:09;4.45;;;1.13;;
69244;SDS011;56357;52.304;4.870;2022-07-23T04:06:36;4.65;;;1.33;;
69244;SDS011;56357;52.304;4.870;2022-07-23T04:09:02;4.43;;;1.35;;
69244;SDS011;56357;52.304;4.870;2022-07-23T04:11:29;4.45;;;1.25;;
69244;SDS011;56357;52.304;4.870;2022-07-23T04:13:56;4.18;;;1.00;;
69244;SDS011;56357;52.304;4.870;2022-07-23T04:16:22;5.05;;;1.20;;
69244;SDS011;56357;52.304;4.870;2022-07-23T04:18:48;5.65;;;1.42;;
69244;SDS011;56357;52.304;4.870;2022-07-23T04:21:15;4.45;;;1.00;;
69244;SDS011;56357;52.304;4.870;2022-07-23T04:23:41;4.20;;;1.10;;
69244;SDS011;56357;52.304;4.870;2022-07-23T04:26:07;3.92;;;1.13;;
69244;SDS011;56357;52.304;4.870;2022-07-23T04:28:34;7.03;;;1.35;;
69244;SDS011;56357;52.304;4.870;2022-07-23T04:31:00;5.57;;;1.10;;
69244;SDS011;56357;52.304;4.870;2022-07-23T04:33:26;5.20;;;1.42;;
69244;SDS011;56357;52.304;4.870;2022-07-23T04:35:53;4.65;;;1.20;;
69244;SDS011;56357;52.304;4.870;2022-07-23T04:38:19;5.72;;;1.38;;
69244;SDS011;56357;52.304;4.870;2022-07-23T04:40:45;5.45;;;1.33;;
69244;SDS011;56357;52.304;4.870;2022-07-23T04:43:12;4.72;;;1.25;;
69244;SDS011;56357;52.304;4.870;2022-07-23T04:45:38;4.45;;;1.58;;
69244;SDS011;56357;52.304;4.870;2022-07-23T04:48:05;4.00;;;1.20;;
69244;SDS011;56357;52.304;4.870;2022-07-23T04:50:31;5.68;;;1.40;;
69244;SDS011;56357;52.304;4.870;2022-07-23T04:52:58;5.07;;;1.38;;
69244;SDS011;56357;52.304;4.870;2022-07-23T04:55:24;4.45;;;1.20;;
69244;SDS011;56357;52.304;4.870;2022-07-23T04:57:50;5.47;;;1.35;;
69244;SDS011;56357;52.304;4.870;2022-07-23T05:00:17;3.53;;;1.10;;
69244;SDS011;56357;52.304;4.870;2022-07-23T05:02:43;4.28;;;1.50;;
69244;SDS011;56357;52.304;4.870;2022-07-23T05:05:09;4.90;;;1.17;;
69244;SDS011;56357;52.304;4.870;2022-07-23T05:07:36;5.20;;;1.02;;
69244;SDS011;56357;52.304;4.870;2022-07-23T05:10:02;4.95;;;1.30;;
69244;SDS011;56357;52.304;4.870;2022-07-23T05:12:29;3.38;;;0.98;;
69244;SDS011;56357;52.304;4.870;2022-07-23T05:14:55;3.72;;;1.10;;
69244;SDS011;56357;52.304;4.870;2022-07-23T05:17:22;4.30;;;0.88;;
69244;SDS011;56357;52.304;4.870;2022-07-23T05:19:48;5.28;;;1.00;;
69244;SDS011;56357;52.304;4.870;2022-07-23T05:22:14;3.90;;;0.93;;
69244;SDS011;56357;52.304;4.870;2022-07-23T05:24:41;3.75;;;0.88;;
69244;SDS011;56357;52.304;4.870;2022-07-23T05:27:08;4.35;;;1.00;;
69244;SDS011;56357;52.304;4.870;2022-07-23T05:29:34;4.80;;;1.30;;
69244;SDS011;56357;52.304;4.870;2022-07-23T05:32:01;5.35;;;1.20;;
69244;SDS011;56357;52.304;4.870;2022-07-23T05:34:27;7.35;;;1.20;;
69244;SDS011;56357;52.304;4.870;2022-07-23T05:36:54;4.70;;;0.98;;
69244;SDS011;56357;52.304;4.870;2022-07-23T05:39:20;3.95;;;1.30;;
69244;SDS011;56357;52.304;4.870;2022-07-23T05:41:46;4.47;;;1.00;;
69244;SDS011;56357;52.304;4.870;2022-07-23T05:44:13;4.75;;;1.02;;
69244;SDS011;56357;52.304;4.870;2022-07-23T05:46:39;4.03;;;0.93;;
69244;SDS011;56357;52.304;4.870;2022-07-23T05:49:05;5.38;;;1.10;;
69244;SDS011;56357;52.304;4.870;2022-07-23T05:51:32;3.63;;;0.93;;
69244;SDS011;56357;52.304;4.870;2022-07-23T05:53:58;5.05;;;0.90;;
69244;SDS011;56357;52.304;4.870;2022-07-23T05:56:25;4.00;;;0.90;;
69244;SDS011;56357;52.304;4.870;2022-07-23T05:58:51;5.05;;;1.00;;
69244;SDS011;56357;52.304;4.870;2022-07-23T06:01:17;3.22;;;0.60;;
69244;SDS011;56357;52.304;4.870;2022-07-23T06:03:44;4.85;;;0.90;;
69244;SDS011;56357;52.304;4.870;2022-07-23T06:06:10;4.28;;;0.90;;
69244;SDS011;56357;52.304;4.870;2022-07-23T06:08:37;4.05;;;0.80;;
69244;SDS011;56357;52.304;4.870;2022-07-23T06:11:03;3.10;;;0.88;;
69244;SDS011;56357;52.304;4.870;2022-07-23T06:13:29;3.63;;;1.00;;
69244;SDS011;56357;52.304;4.870;2022-07-23T06:15:56;5.65;;;0.70;;
69244;SDS011;56357;52.304;4.870;2022-07-23T06:18:22;5.07;;;1.00;;
69244;SDS011;56357;52.304;4.870;2022-07-23T06:20:49;3.97;;;0.70;;
69244;SDS011;56357;52.304;4.870;2022-07-23T06:23:15;3.55;;;0.70;;
69244;SDS011;56357;52.304;4.870;2022-07-23T06:25:41;4.30;;;0.70;;
69244;SDS011;56357;52.304;4.870;2022-07-23T06:28:08;3.95;;;0.95;;
69244;SDS011;56357;52.304;4.870;2022-07-23T06:30:34;3.70;;;0.60;;
69244;SDS011;56357;52.304;4.870;2022-07-23T06:33:00;4.18;;;0.80;;
69244;SDS011;56357;52.304;4.870;2022-07-23T06:35:27;4.10;;;0.82;;
69244;SDS011;56357;52.304;4.870;2022-07-23T06:37:53;3.70;;;0.80;;
69244;SDS011;56357;52.304;4.870;2022-07-23T06:40:20;3.95;;;0.77;;
69244;SDS011;56357;52.304;4.870;2022-07-23T06:42:46;3.75;;;0.85;;
69244;SDS011;56357;52.304;4.870;2022-07-23T06:45:13;4.90;;;1.00;;
69244;SDS011;56357;52.304;4.870;2022-07-23T06:47:39;3.78;;;0.60;;
69244;SDS011;56357;52.304;4.870;2022-07-23T06:50:06;2.72;;;0.50;;
69244;SDS011;56357;52.304;4.870;2022-07-23T06:52:33;4.82;;;1.15;;
69244;SDS011;56357;52.304;4.870;2022-07-23T06:54:59;2.65;;;0.68;;
69244;SDS011;56357;52.304;4.870;2022-07-23T06:57:26;2.90;;;0.60;;
69244;SDS011;56357;52.304;4.870;2022-07-23T06:59:52;3.58;;;0.77;;
69244;SDS011;56357;52.304;4.870;2022-07-23T07:02:19;2.90;;;0.68;;
69244;SDS011;56357;52.304;4.870;2022-07-23T07:04:45;3.08;;;0.68;;
69244;SDS011;56357;52.304;4.870;2022-07-23T07:07:12;3.45;;;0.90;;
69244;SDS011;56357;52.304;4.870;2022-07-23T07:09:38;2.72;;;0.60;;
69244;SDS011;56357;52.304;4.870;2022-07-23T07:12:05;5.20;;;0.65;;
69244;SDS011;56357;52.304;4.870;2022-07-23T07:14:31;3.33;;;0.55;;
69244;SDS011;56357;52.304;4.870;2022-07-23T07:16:57;5.63;;;0.93;;
69244;SDS011;56357;52.304;4.870;2022-07-23T07:19:24;3.17;;;0.65;;
69244;SDS011;56357;52.304;4.870;2022-07-23T07:21:50;4.00;;;0.70;;
69244;SDS011;56357;52.304;4.870;2022-07-23T07:24:16;3.40;;;0.88;;
69244;SDS011;56357;52.304;4.870;2022-07-23T07:26:43;2.97;;;0.60;;
69244;SDS011;56357;52.304;4.870;2022-07-23T07:29:09;4.20;;;0.90;;
69244;SDS011;56357;52.304;4.870;2022-07-23T07:31:36;4.60;;;0.80;;
69244;SDS011;56357;52.304;4.870;2022-07-23T07:34:02;4.03;;;0.73;;
69244;SDS011;56357;52.304;4.870;2022-07-23T07:36:29;2.60;;;0.60;;
69244;SDS011;56357;52.304;4.870;2022-07-23T07:38:55;4.30;;;0.75;;
69244;SDS011;56357;52.304;4.870;2022-07-23T07:41:21;3.30;;;0.70;;
69244;SDS011;56357;52.304;4.870;2022-07-23T07:43:49;2.65;;;0.80;;
69244;SDS011;56357;52.304;4.870;2022-07-23T07:46:16;2.97;;;0.55;;
69244;SDS011;56357;52.304;4.870;2022-07-23T07:48:42;3.58;;;0.70;;
69244;SDS011;56357;52.304;4.870;2022-07-23T07:51:09;3.42;;;0.73;;
69244;SDS011;56357;52.304;4.870;2022-07-23T07:53:35;3.55;;;0.80;;
69244;SDS011;56357;52.304;4.870;2022-07-23T07:56:01;2.70;;;0.60;;
69244;SDS011;56357;52.304;4.870;2022-07-23T07:58:28;3.20;;;0.70;;
69244;SDS011;56357;52.304;4.870;2022-07-23T08:00:54;2.80;;;0.80;;
69244;SDS011;56357;52.304;4.870;2022-07-23T08:03:21;5.03;;;1.05;;
69244;SDS011;56357;52.304;4.870;2022-07-23T08:05:47;3.97;;;0.90;;
69244;SDS011;56357;52.304;4.870;2022-07-23T08:08:14;5.57;;;0.80;;
69244;SDS011;56357;52.304;4.870;2022-07-23T08:10:40;3.00;;;0.63;;
69244;SDS011;56357;52.304;4.870;2022-07-23T08:13:11;3.03;;;0.60;;
69244;SDS011;56357;52.304;4.870;2022-07-23T08:15:39;3.80;;;0.70;;
69244;SDS011;56357;52.304;4.870;2022-07-23T08:18:06;3.33;;;0.60;;
69244;SDS011;56357;52.304;4.870;2022-07-23T08:20:32;3.83;;;0.80;;
69244;SDS011;56357;52.304;4.870;2022-07-23T08:23:00;2.90;;;0.60;;
69244;SDS011;56357;52.304;4.870;2022-07-23T08:25:31;3.42;;;0.65;;
69244;SDS011;56357;52.304;4.870;2022-07-23T08:27:59;4.88;;;0.90;;
69244;SDS011;56357;52.304;4.870;2022-07-23T08:30:27;4.05;;;0.80;;
69244;SDS011;56357;52.304;4.870;2022-07-23T08:37:58;3.70;;;0.63;;
69244;SDS011;56357;52.304;4.870;2022-07-23T08:40:26;3.00;;;0.60;;
69244;SDS011;56357;52.304;4.870;2022-07-23T08:42:54;4.13;;;0.60;;
69244;SDS011;56357;52.304;4.870;2022-07-23T08:45:21;3.55;;;0.63;;
69244;SDS011;56357;52.304;4.870;2022-07-23T08:47:49;4.45;;;0.80;;
69244;SDS011;56357;52.304;4.870;2022-07-23T08:50:17;5.10;;;0.80;;
69244;SDS011;56357;52.304;4.870;2022-07-23T08:52:44;3.38;;;0.50;;
69244;SDS011;56357;52.304;4.870;2022-07-23T08:55:10;3.90;;;0.80;;
69244;SDS011;56357;52.304;4.870;2022-07-23T08:57:37;3.47;;;0.80;;
69244;SDS011;56357;52.304;4.870;2022-07-23T09:00:04;2.78;;;0.70;;
69244;SDS011;56357;52.304;4.870;2022-07-23T09:02:37;3.03;;;0.60;;
69244;SDS011;56357;52.304;4.870;2022-07-23T09:05:05;3.50;;;0.70;;
69244;SDS011;56357;52.304;4.870;2022-07-23T09:07:32;3.25;;;0.60;;
69244;SDS011;56357;52.304;4.870;2022-07-23T09:10:08;4.38;;;0.70;;
69244;SDS011;56357;52.304;4.870;2022-07-23T09:12:36;3.65;;;0.82;;
69244;SDS011;56357;52.304;4.870;2022-07-23T09:15:04;2.70;;;0.60;;
69244;SDS011;56357;52.304;4.870;2022-07-23T09:17:42;4.03;;;0.60;;
69244;SDS011;56357;52.304;4.870;2022-07-23T09:20:12;2.63;;;0.50;;
69244;SDS011;56357;52.304;4.870;2022-07-23T09:22:49;2.95;;;0.70;;
69244;SDS011;56357;52.304;4.870;2022-07-23T09:25:17;2.90;;;0.50;;
69244;SDS011;56357;52.304;4.870;2022-07-23T09:30:14;3.38;;;0.68;;
69244;SDS011;56357;52.304;4.870;2022-07-23T09:32:41;4.13;;;0.88;;
69244;SDS011;56357;52.304;4.870;2022-07-23T09:35:07;2.90;;;0.60;;
69244;SDS011;56357;52.304;4.870;2022-07-23T09:37:34;4.53;;;1.10;;
69244;SDS011;56357;52.304;4.870;2022-07-23T09:40:19;2.65;;;0.47;;
69244;SDS011;56357;52.304;4.870;2022-07-23T09:42:54;3.75;;;0.80;;
69244;SDS011;56357;52.304;4.870;2022-07-23T09:45:21;3.35;;;0.50;;
69244;SDS011;56357;52.304;4.870;2022-07-23T09:47:47;2.70;;;0.50;;
69244;SDS011;56357;52.304;4.870;2022-07-23T09:50:14;2.80;;;0.70;;
69244;SDS011;56357;52.304;4.870;2022-07-23T09:52:47;3.10;;;0.75;;
69244;SDS011;56357;52.304;4.870;2022-07-23T09:55:16;2.95;;;0.60;;
69244;SDS011;56357;52.304;4.870;2022-07-23T09:57:43;3.45;;;0.57;;
69244;SDS011;56357;52.304;4.870;2022-07-23T10:00:12;3.03;;;0.50;;
69244;SDS011;56357;52.304;4.870;2022-07-23T10:02:39;3.40;;;0.70;;
69244;SDS011;56357;52.304;4.870;2022-07-23T10:05:06;3.00;;;0.65;;
69244;SDS011;56357;52.304;4.870;2022-07-23T10:07:34;3.45;;;0.80;;
69244;SDS011;56357;52.304;4.870;2022-07-23T10:10:04;3.45;;;0.73;;
69244;SDS011;56357;52.304;4.870;2022-07-23T10:12:31;2.80;;;0.60;;
69244;SDS011;56357;52.304;4.870;2022-07-23T10:15:10;3.70;;;0.75;;
69244;SDS011;56357;52.304;4.870;2022-07-23T10:17:37;2.80;;;0.60;;
69244;SDS011;56357;52.304;4.870;2022-07-23T10:20:03;4.22;;;0.85;;
69244;SDS011;56357;52.304;4.870;2022-07-23T10:22:33;2.92;;;0.70;;
69244;SDS011;56357;52.304;4.870;2022-07-23T10:25:10;3.53;;;0.80;;
69244;SDS011;56357;52.304;4.870;2022-07-23T10:41:50;2.42;;;0.50;;
69244;SDS011;56357;52.304;4.870;2022-07-23T10:44:18;3.38;;;1.00;;
69244;SDS011;56357;52.304;4.870;2022-07-23T10:49:41;3.55;;;0.93;;
69244;SDS011;56357;52.304;4.870;2022-07-23T10:57:14;2.97;;;0.60;;
69244;SDS011;56357;52.304;4.870;2022-07-23T11:02:28;2.80;;;0.68;;
69244;SDS011;56357;52.304;4.870;2022-07-23T11:04:59;3.10;;;0.80;;
69244;SDS011;56357;52.304;4.870;2022-07-23T11:07:26;3.90;;;0.88;;
69244;SDS011;56357;52.304;4.870;2022-07-23T11:09:53;3.40;;;1.08;;
69244;SDS011;56357;52.304;4.870;2022-07-23T11:20:17;3.25;;;0.80;;
69244;SDS011;56357;52.304;4.870;2022-07-23T11:22:54;2.85;;;0.90;;
69244;SDS011;56357;52.304;4.870;2022-07-23T11:27:49;3.85;;;0.90;;
69244;SDS011;56357;52.304;4.870;2022-07-23T11:33:38;4.10;;;1.00;;
69244;SDS011;56357;52.304;4.870;2022-07-23T11:35:40;5.13;;;1.45;;
69244;SDS011;56357;52.304;4.870;2022-07-23T11:38:18;4.22;;;1.00;;
69244;SDS011;56357;52.304;4.870;2022-07-23T11:40:47;3.67;;;1.10;;
69244;SDS011;56357;52.304;4.870;2022-07-23T11:43:15;5.10;;;1.40;;
69244;SDS011;56357;52.304;4.870;2022-07-23T11:45:43;3.30;;;0.90;;
69244;SDS011;56357;52.304;4.870;2022-07-23T11:48:16;3.20;;;0.90;;
69244;SDS011;56357;52.304;4.870;2022-07-23T11:50:45;3.20;;;0.70;;
69244;SDS011;56357;52.304;4.870;2022-07-23T11:53:11;3.95;;;1.23;;
69244;SDS011;56357;52.304;4.870;2022-07-23T11:55:38;3.27;;;1.00;;
69244;SDS011;56357;52.304;4.870;2022-07-23T11:58:04;5.68;;;1.45;;
69244;SDS011;56357;52.304;4.870;2022-07-23T12:00:31;3.60;;;1.17;;
69244;SDS011;56357;52.304;4.870;2022-07-23T12:02:59;3.53;;;1.08;;
69244;SDS011;56357;52.304;4.870;2022-07-23T12:05:28;5.18;;;1.40;;
69244;SDS011;56357;52.304;4.870;2022-07-23T12:07:57;4.53;;;1.10;;
69244;SDS011;56357;52.304;4.870;2022-07-23T12:10:37;3.30;;;0.98;;
69244;SDS011;56357;52.304;4.870;2022-07-23T12:13:10;3.83;;;1.15;;
69244;SDS011;56357;52.304;4.870;2022-07-23T12:15:43;4.18;;;1.55;;
69244;SDS011;56357;52.304;4.870;2022-07-23T12:18:15;5.15;;;1.05;;
69244;SDS011;56357;52.304;4.870;2022-07-23T12:20:53;3.73;;;1.20;;
69244;SDS011;56357;52.304;4.870;2022-07-23T12:23:21;4.80;;;1.20;;
69244;SDS011;56357;52.304;4.870;2022-07-23T12:25:50;5.50;;;1.00;;
69244;SDS011;56357;52.304;4.870;2022-07-23T12:28:30;5.13;;;1.15;;
69244;SDS011;56357;52.304;4.870;2022-07-23T12:30:58;4.75;;;1.30;;
69244;SDS011;56357;52.304;4.870;2022-07-23T12:33:32;3.83;;;1.17;;
69244;SDS011;56357;52.304;4.870;2022-07-23T12:36:02;4.07;;;1.13;;
69244;SDS011;56357;52.304;4.870;2022-07-23T12:38:38;4.65;;;1.23;;
69244;SDS011;56357;52.304;4.870;2022-07-23T12:41:07;3.08;;;1.00;;
69244;SDS011;56357;52.304;4.870;2022-07-23T12:43:35;3.97;;;1.10;;
69244;SDS011;56357;52.304;4.870;2022-07-23T12:48:50;4.20;;;1.02;;
69244;SDS011;56357;52.304;4.870;2022-07-23T12:51:18;5.55;;;1.42;;
69244;SDS011;56357;52.304;4.870;2022-07-23T12:53:50;5.20;;;1.70;;
69244;SDS011;56357;52.304;4.870;2022-07-23T12:56:22;4.15;;;1.25;;
69244;SDS011;56357;52.304;4.870;2022-07-23T13:01:31;4.10;;;1.10;;
69244;SDS011;56357;52.304;4.870;2022-07-23T13:06:34;4.03;;;1.08;;
69244;SDS011;56357;52.304;4.870;2022-07-23T13:09:04;4.50;;;1.00;;
69244;SDS011;56357;52.304;4.870;2022-07-23T13:11:33;3.73;;;1.20;;
69244;SDS011;56357;52.304;4.870;2022-07-23T13:14:00;3.88;;;1.02;;
69244;SDS011;56357;52.304;4.870;2022-07-23T13:16:27;4.60;;;1.45;;
69244;SDS011;56357;52.304;4.870;2022-07-23T13:18:55;4.03;;;1.30;;
69244;SDS011;56357;52.304;4.870;2022-07-23T13:21:22;3.80;;;1.20;;
69244;SDS011;56357;52.304;4.870;2022-07-23T13:23:49;5.43;;;1.27;;
69244;SDS011;56357;52.304;4.870;2022-07-23T13:26:15;4.65;;;1.55;;
69244;SDS011;56357;52.304;4.870;2022-07-23T13:28:42;3.72;;;1.25;;
69244;SDS011;56357;52.304;4.870;2022-07-23T13:31:09;4.32;;;1.20;;
69244;SDS011;56357;52.304;4.870;2022-07-23T13:33:35;4.32;;;1.50;;
69244;SDS011;56357;52.304;4.870;2022-07-23T13:36:02;4.23;;;1.50;;
69244;SDS011;56357;52.304;4.870;2022-07-23T13:38:29;4.60;;;1.30;;
69244;SDS011;56357;52.304;4.870;2022-07-23T13:40:55;4.78;;;1.23;;
69244;SDS011;56357;52.304;4.870;2022-07-23T13:43:22;4.47;;;1.25;;
69244;SDS011;56357;52.304;4.870;2022-07-23T13:45:50;4.68;;;1.13;;
69244;SDS011;56357;52.304;4.870;2022-07-23T13:48:18;5.63;;;1.43;;
69244;SDS011;56357;52.304;4.870;2022-07-23T13:50:46;3.85;;;1.27;;
69244;SDS011;56357;52.304;4.870;2022-07-23T13:53:18;4.38;;;1.55;;
69244;SDS011;56357;52.304;4.870;2022-07-23T13:55:47;4.30;;;1.17;;
69244;SDS011;56357;52.304;4.870;2022-07-23T13:58:15;4.20;;;1.50;;
69244;SDS011;56357;52.304;4.870;2022-07-23T14:00:43;5.17;;;1.53;;
69244;SDS011;56357;52.304;4.870;2022-07-23T14:03:13;4.82;;;1.67;;
69244;SDS011;56357;52.304;4.870;2022-07-23T14:05:40;4.72;;;1.50;;
69244;SDS011;56357;52.304;4.870;2022-07-23T14:08:07;4.60;;;1.60;;
69244;SDS011;56357;52.304;4.870;2022-07-23T14:10:34;4.07;;;1.45;;
69244;SDS011;56357;52.304;4.870;2022-07-23T14:13:00;4.10;;;1.47;;
69244;SDS011;56357;52.304;4.870;2022-07-23T14:15:29;3.97;;;1.40;;
69244;SDS011;56357;52.304;4.870;2022-07-23T14:17:57;5.90;;;1.85;;
69244;SDS011;56357;52.304;4.870;2022-07-23T14:20:24;3.35;;;1.35;;
69244;SDS011;56357;52.304;4.870;2022-07-23T14:22:50;4.78;;;1.85;;
69244;SDS011;56357;52.304;4.870;2022-07-23T14:25:18;3.93;;;1.80;;
69244;SDS011;56357;52.304;4.870;2022-07-23T14:27:45;3.60;;;1.90;;
69244;SDS011;56357;52.304;4.870;2022-07-23T14:30:11;4.60;;;1.83;;
69244;SDS011;56357;52.304;4.870;2022-07-23T14:32:39;3.70;;;1.75;;
69244;SDS011;56357;52.304;4.870;2022-07-23T14:35:06;3.67;;;1.70;;
69244;SDS011;56357;52.304;4.870;2022-07-23T14:37:33;4.53;;;1.70;;
69244;SDS011;56357;52.304;4.870;2022-07-23T14:39:59;3.95;;;1.63;;
69244;SDS011;56357;52.304;4.870;2022-07-23T14:42:27;4.60;;;1.70;;
69244;SDS011;56357;52.304;4.870;2022-07-23T14:44:54;3.30;;;1.38;;
69244;SDS011;56357;52.304;4.870;2022-07-23T14:47:20;5.22;;;1.70;;
69244;SDS011;56357;52.304;4.870;2022-07-23T14:49:47;3.93;;;1.40;;
69244;SDS011;56357;52.304;4.870;2022-07-23T14:52:13;3.45;;;1.55;;
69244;SDS011;56357;52.304;4.870;2022-07-23T14:54:39;3.58;;;1.30;;
69244;SDS011;56357;52.304;4.870;2022-07-23T14:57:06;3.70;;;1.70;;
69244;SDS011;56357;52.304;4.870;2022-07-23T14:59:34;3.90;;;1.70;;
69244;SDS011;56357;52.304;4.870;2022-07-23T15:02:00;5.87;;;2.00;;
69244;SDS011;56357;52.304;4.870;2022-07-23T15:04:27;4.60;;;1.60;;
69244;SDS011;56357;52.304;4.870;2022-07-23T15:06:53;3.40;;;1.27;;
69244;SDS011;56357;52.304;4.870;2022-07-23T15:09:20;3.28;;;1.25;;
69244;SDS011;56357;52.304;4.870;2022-07-23T15:11:46;4.45;;;1.65;;
69244;SDS011;56357;52.304;4.870;2022-07-23T15:14:13;3.13;;;1.13;;
69244;SDS011;56357;52.304;4.870;2022-07-23T15:16:39;3.55;;;1.40;;
69244;SDS011;56357;52.304;4.870;2022-07-23T15:19:06;4.22;;;1.70;;
69244;SDS011;56357;52.304;4.870;2022-07-23T15:21:34;3.55;;;1.42;;
69244;SDS011;56357;52.304;4.870;2022-07-23T15:24:01;4.53;;;1.60;;
69244;SDS011;56357;52.304;4.870;2022-07-23T15:26:28;5.40;;;1.97;;
69244;SDS011;56357;52.304;4.870;2022-07-23T15:28:56;4.35;;;1.60;;
69244;SDS011;56357;52.304;4.870;2022-07-23T15:31:23;3.78;;;1.42;;
69244;SDS011;56357;52.304;4.870;2022-07-23T15:33:50;4.00;;;1.40;;
69244;SDS011;56357;52.304;4.870;2022-07-23T15:36:17;4.20;;;2.10;;
69244;SDS011;56357;52.304;4.870;2022-07-23T15:38:45;4.03;;;1.53;;
69244;SDS011;56357;52.304;4.870;2022-07-23T15:41:11;3.92;;;1.65;;
69244;SDS011;56357;52.304;4.870;2022-07-23T15:43:38;3.20;;;1.35;;